sensor_id;sensor_type;location;lat;lon;timestamp;temperature;humidity
72928;SHT30;61071;51.618;19.388;2023-05-10T00:00:22;7.61;61.22
72928;SHT30;61071;51.618;19.388;2023-05-10T00:02:49;7.63;61.30
72928;SHT30;61071;51.618;19.388;2023-05-10T00:05:15;7.70;60.58
72928;SHT30;61071;51.618;19.388;2023-05-10T00:07:41;7.56;60.87
72928;SHT30;61071;51.618;19.388;2023-05-10T00:10:10;7.77;59.99
72928;SHT30;61071;51.618;19.388;2023-05-10T00:12:37;7.75;60.15
72928;SHT30;61071;51.618;19.388;2023-05-10T00:15:03;7.68;60.52
72928;SHT30;61071;51.618;19.388;2023-05-10T00:17:29;7.85;59.53
72928;SHT30;61071;51.618;19.388;2023-05-10T00:19:55;7.77;59.17
72928;SHT30;61071;51.618;19.388;2023-05-10T00:22:21;7.82;59.53
72928;SHT30;61071;51.618;19.388;2023-05-10T00:24:47;7.86;59.33
72928;SHT30;61071;51.618;19.388;2023-05-10T00:27:12;7.73;59.59
72928;SHT30;61071;51.618;19.388;2023-05-10T00:29:38;7.83;59.42
72928;SHT30;61071;51.618;19.388;2023-05-10T00:32:04;7.87;58.96
72928;SHT30;61071;51.618;19.388;2023-05-10T00:34:30;7.83;59.30
72928;SHT30;61071;51.618;19.388;2023-05-10T00:36:56;7.75;59.32
72928;SHT30;61071;51.618;19.388;2023-05-10T00:39:21;7.86;58.58
72928;SHT30;61071;51.618;19.388;2023-05-10T00:41:47;7.75;59.32
72928;SHT30;61071;51.618;19.388;2023-05-10T00:44:13;7.68;58.89
72928;SHT30;61071;51.618;19.388;2023-05-10T00:46:40;7.69;59.32
72928;SHT30;61071;51.618;19.388;2023-05-10T00:49:06;7.66;58.84
72928;SHT30;61071;51.618;19.388;2023-05-10T00:51:32;7.76;58.22
72928;SHT30;61071;51.618;19.388;2023-05-10T00:53:59;7.76;57.83
72928;SHT30;61071;51.618;19.388;2023-05-10T00:56:25;7.83;57.57
72928;SHT30;61071;51.618;19.388;2023-05-10T00:58:52;7.94;57.32
72928;SHT30;61071;51.618;19.388;2023-05-10T01:01:19;7.94;57.26
72928;SHT30;61071;51.618;19.388;2023-05-10T01:03:45;7.94;57.39
72928;SHT30;61071;51.618;19.388;2023-05-10T01:06:12;7.94;57.02
72928;SHT30;61071;51.618;19.388;2023-05-10T01:08:39;7.94;56.90
72928;SHT30;61071;51.618;19.388;2023-05-10T01:11:05;7.98;56.42
72928;SHT30;61071;51.618;19.388;2023-05-10T01:13:38;7.86;57.06
72928;SHT30;61071;51.618;19.388;2023-05-10T01:16:04;7.98;56.46
72928;SHT30;61071;51.618;19.388;2023-05-10T01:18:36;8.03;56.60
72928;SHT30;61071;51.618;19.388;2023-05-10T01:33:14;7.96;56.21
72928;SHT30;61071;51.618;19.388;2023-05-10T01:44:18;7.87;57.20
72928;SHT30;61071;51.618;19.388;2023-05-10T01:46:53;7.83;56.88
72928;SHT30;61071;51.618;19.388;2023-05-10T01:49:26;7.89;56.49
72928;SHT30;61071;51.618;19.388;2023-05-10T01:52:06;7.82;56.97
72928;SHT30;61071;51.618;19.388;2023-05-10T01:54:35;7.72;58.07
72928;SHT30;61071;51.618;19.388;2023-05-10T01:57:06;7.75;57.30
72928;SHT30;61071;51.618;19.388;2023-05-10T01:59:36;7.75;57.29
72928;SHT30;61071;51.618;19.388;2023-05-10T02:02:08;7.79;57.08
72928;SHT30;61071;51.618;19.388;2023-05-10T02:04:39;7.73;57.59
72928;SHT30;61071;51.618;19.388;2023-05-10T02:07:08;7.73;57.25
72928;SHT30;61071;51.618;19.388;2023-05-10T02:09:36;7.76;56.78
72928;SHT30;61071;51.618;19.388;2023-05-10T02:12:05;7.73;57.40
72928;SHT30;61071;51.618;19.388;2023-05-10T02:14:35;7.52;58.42
72928;SHT30;61071;51.618;19.388;2023-05-10T02:17:05;7.48;58.55
72928;SHT30;61071;51.618;19.388;2023-05-10T02:19:32;7.56;58.43
72928;SHT30;61071;51.618;19.388;2023-05-10T02:22:00;7.48;58.77
72928;SHT30;61071;51.618;19.388;2023-05-10T02:24:28;7.48;58.74
72928;SHT30;61071;51.618;19.388;2023-05-10T02:26:55;7.47;58.18
72928;SHT30;61071;51.618;19.388;2023-05-10T02:29:24;7.48;58.83
72928;SHT30;61071;51.618;19.388;2023-05-10T02:31:54;7.45;58.49
72928;SHT30;61071;51.618;19.388;2023-05-10T02:34:22;7.45;58.45
72928;SHT30;61071;51.618;19.388;2023-05-10T02:36:50;7.47;58.34
72928;SHT30;61071;51.618;19.388;2023-05-10T02:39:19;7.48;58.56
72928;SHT30;61071;51.618;19.388;2023-05-10T02:41:47;7.48;58.63
72928;SHT30;61071;51.618;19.388;2023-05-10T02:44:17;7.45;59.04
72928;SHT30;61071;51.618;19.388;2023-05-10T02:46:45;7.45;58.59
72928;SHT30;61071;51.618;19.388;2023-05-10T02:49:11;7.47;58.76
72928;SHT30;61071;51.618;19.388;2023-05-10T02:51:44;7.44;58.74
72928;SHT30;61071;51.618;19.388;2023-05-10T02:54:19;7.38;58.84
72928;SHT30;61071;51.618;19.388;2023-05-10T02:56:55;7.32;59.69
72928;SHT30;61071;51.618;19.388;2023-05-10T02:59:22;7.34;59.52
72928;SHT30;61071;51.618;19.388;2023-05-10T03:01:47;7.32;59.31
72928;SHT30;61071;51.618;19.388;2023-05-10T03:04:13;7.27;59.81
72928;SHT30;61071;51.618;19.388;2023-05-10T03:06:39;7.20;60.21
72928;SHT30;61071;51.618;19.388;2023-05-10T03:09:05;7.25;60.02
72928;SHT30;61071;51.618;19.388;2023-05-10T03:11:52;7.21;59.61
72928;SHT30;61071;51.618;19.388;2023-05-10T03:17:18;7.36;59.14
72928;SHT30;61071;51.618;19.388;2023-05-10T03:19:55;7.44;58.67
72928;SHT30;61071;51.618;19.388;2023-05-10T03:22:39;7.35;59.68
72928;SHT30;61071;51.618;19.388;2023-05-10T03:25:10;7.52;59.07
72928;SHT30;61071;51.618;19.388;2023-05-10T03:27:41;7.58;59.22
72928;SHT30;61071;51.618;19.388;2023-05-10T03:30:11;7.77;58.68
72928;SHT30;61071;51.618;19.388;2023-05-10T03:32:37;8.25;56.96
72928;SHT30;61071;51.618;19.388;2023-05-10T03:35:11;8.68;55.44
72928;SHT30;61071;51.618;19.388;2023-05-10T03:37:37;9.28;54.01
72928;SHT30;61071;51.618;19.388;2023-05-10T03:40:04;9.41;53.18
72928;SHT30;61071;51.618;19.388;2023-05-10T03:42:30;9.68;52.98
72928;SHT30;61071;51.618;19.388;2023-05-10T03:44:56;9.83;52.25
72928;SHT30;61071;51.618;19.388;2023-05-10T03:47:22;10.26;51.08
72928;SHT30;61071;51.618;19.388;2023-05-10T03:49:47;10.30;51.02
72928;SHT30;61071;51.618;19.388;2023-05-10T03:52:13;10.58;50.36
72928;SHT30;61071;51.618;19.388;2023-05-10T03:54:39;10.88;49.19
72928;SHT30;61071;51.618;19.388;2023-05-10T03:57:04;10.67;49.20
72928;SHT30;61071;51.618;19.388;2023-05-10T03:59:30;10.99;48.96
72928;SHT30;61071;51.618;19.388;2023-05-10T04:01:56;11.33;48.22
72928;SHT30;61071;51.618;19.388;2023-05-10T04:04:22;11.13;47.74
72928;SHT30;61071;51.618;19.388;2023-05-10T04:06:49;11.36;48.00
72928;SHT30;61071;51.618;19.388;2023-05-10T04:09:15;11.40;48.27
72928;SHT30;61071;51.618;19.388;2023-05-10T04:11:41;11.79;47.24
72928;SHT30;61071;51.618;19.388;2023-05-10T04:14:07;11.60;47.83
72928;SHT30;61071;51.618;19.388;2023-05-10T04:16:33;11.36;47.07
72928;SHT30;61071;51.618;19.388;2023-05-10T04:18:59;11.27;47.15
72928;SHT30;61071;51.618;19.388;2023-05-10T04:21:25;11.15;48.83
72928;SHT30;61071;51.618;19.388;2023-05-10T04:23:51;10.55;49.73
72928;SHT30;61071;51.618;19.388;2023-05-10T04:26:17;10.65;50.58
72928;SHT30;61071;51.618;19.388;2023-05-10T04:28:42;10.51;50.61
72928;SHT30;61071;51.618;19.388;2023-05-10T04:31:10;10.21;52.03
72928;SHT30;61071;51.618;19.388;2023-05-10T04:33:36;10.43;50.90
72928;SHT30;61071;51.618;19.388;2023-05-10T04:36:03;10.23;52.48
72928;SHT30;61071;51.618;19.388;2023-05-10T04:38:29;10.03;52.07
72928;SHT30;61071;51.618;19.388;2023-05-10T04:41:05;9.76;52.59
72928;SHT30;61071;51.618;19.388;2023-05-10T04:43:31;9.78;52.73
72928;SHT30;61071;51.618;19.388;2023-05-10T04:45:57;9.89;52.90
72928;SHT30;61071;51.618;19.388;2023-05-10T04:48:23;9.89;53.17
72928;SHT30;61071;51.618;19.388;2023-05-10T04:50:48;9.85;52.62
72928;SHT30;61071;51.618;19.388;2023-05-10T04:53:14;9.81;52.96
72928;SHT30;61071;51.618;19.388;2023-05-10T04:55:40;10.02;52.82
72928;SHT30;61071;51.618;19.388;2023-05-10T04:58:05;10.07;52.47
72928;SHT30;61071;51.618;19.388;2023-05-10T05:00:33;10.10;52.10
72928;SHT30;61071;51.618;19.388;2023-05-10T05:02:59;10.43;51.97
72928;SHT30;61071;51.618;19.388;2023-05-10T05:05:25;10.43;51.99
72928;SHT30;61071;51.618;19.388;2023-05-10T05:07:51;10.47;51.68
72928;SHT30;61071;51.618;19.388;2023-05-10T05:10:16;10.67;51.44
72928;SHT30;61071;51.618;19.388;2023-05-10T05:12:42;10.48;52.11
72928;SHT30;61071;51.618;19.388;2023-05-10T05:15:08;10.32;52.12
72928;SHT30;61071;51.618;19.388;2023-05-10T05:17:35;10.43;53.46
72928;SHT30;61071;51.618;19.388;2023-05-10T05:20:01;10.44;52.69
72928;SHT30;61071;51.618;19.388;2023-05-10T05:22:27;10.55;53.04
72928;SHT30;61071;51.618;19.388;2023-05-10T05:24:57;10.93;51.98
72928;SHT30;61071;51.618;19.388;2023-05-10T05:27:27;11.31;50.26
72928;SHT30;61071;51.618;19.388;2023-05-10T05:29:54;11.73;50.31
72928;SHT30;61071;51.618;19.388;2023-05-10T05:32:20;11.58;50.06
72928;SHT30;61071;51.618;19.388;2023-05-10T05:34:46;11.16;50.50
72928;SHT30;61071;51.618;19.388;2023-05-10T05:37:16;11.18;51.93
72928;SHT30;61071;51.618;19.388;2023-05-10T05:39:42;11.10;51.44
72928;SHT30;61071;51.618;19.388;2023-05-10T05:42:11;11.16;50.90
72928;SHT30;61071;51.618;19.388;2023-05-10T05:44:37;11.43;52.69
72928;SHT30;61071;51.618;19.388;2023-05-10T05:47:04;11.81;49.58
72928;SHT30;61071;51.618;19.388;2023-05-10T05:49:30;11.94;50.12
72928;SHT30;61071;51.618;19.388;2023-05-10T05:52:05;13.43;46.20
72928;SHT30;61071;51.618;19.388;2023-05-10T05:54:31;14.07;46.07
72928;SHT30;61071;51.618;19.388;2023-05-10T05:56:58;13.77;44.43
72928;SHT30;61071;51.618;19.388;2023-05-10T05:59:24;14.21;45.83
72928;SHT30;61071;51.618;19.388;2023-05-10T06:01:50;14.68;44.47
72928;SHT30;61071;51.618;19.388;2023-05-10T06:04:16;15.16;42.19
72928;SHT30;61071;51.618;19.388;2023-05-10T06:06:42;15.07;43.17
72928;SHT30;61071;51.618;19.388;2023-05-10T06:09:09;14.33;43.17
72928;SHT30;61071;51.618;19.388;2023-05-10T06:11:35;14.17;45.76
72928;SHT30;61071;51.618;19.388;2023-05-10T06:14:02;14.15;44.44
72928;SHT30;61071;51.618;19.388;2023-05-10T06:16:30;14.15;45.68
72928;SHT30;61071;51.618;19.388;2023-05-10T06:18:57;13.80;46.08
72928;SHT30;61071;51.618;19.388;2023-05-10T06:21:22;13.35;46.47
72928;SHT30;61071;51.618;19.388;2023-05-10T06:23:48;12.95;47.94
72928;SHT30;61071;51.618;19.388;2023-05-10T06:26:14;13.30;46.59
72928;SHT30;61071;51.618;19.388;2023-05-10T06:28:40;13.07;49.20
72928;SHT30;61071;51.618;19.388;2023-05-10T06:31:06;12.98;49.21
72928;SHT30;61071;51.618;19.388;2023-05-10T06:33:33;13.08;50.03
72928;SHT30;61071;51.618;19.388;2023-05-10T06:35:59;13.36;49.89
72928;SHT30;61071;51.618;19.388;2023-05-10T06:38:25;13.45;49.33
72928;SHT30;61071;51.618;19.388;2023-05-10T06:40:51;13.52;48.10
72928;SHT30;61071;51.618;19.388;2023-05-10T06:43:17;13.50;47.51
72928;SHT30;61071;51.618;19.388;2023-05-10T06:45:43;13.52;48.04
72928;SHT30;61071;51.618;19.388;2023-05-10T06:48:09;13.60;47.86
72928;SHT30;61071;51.618;19.388;2023-05-10T06:50:35;13.67;46.94
72928;SHT30;61071;51.618;19.388;2023-05-10T06:53:01;13.62;47.51
72928;SHT30;61071;51.618;19.388;2023-05-10T06:55:27;13.81;47.92
72928;SHT30;61071;51.618;19.388;2023-05-10T06:57:53;13.81;47.31
72928;SHT30;61071;51.618;19.388;2023-05-10T07:00:20;13.80;47.34
72928;SHT30;61071;51.618;19.388;2023-05-10T07:02:46;14.04;47.56
72928;SHT30;61071;51.618;19.388;2023-05-10T07:05:13;13.94;46.60
72928;SHT30;61071;51.618;19.388;2023-05-10T07:07:39;14.07;48.01
72928;SHT30;61071;51.618;19.388;2023-05-10T07:10:06;14.14;46.90
72928;SHT30;61071;51.618;19.388;2023-05-10T07:12:32;14.38;46.65
72928;SHT30;61071;51.618;19.388;2023-05-10T07:14:58;14.46;46.24
72928;SHT30;61071;51.618;19.388;2023-05-10T07:17:24;14.49;45.40
72928;SHT30;61071;51.618;19.388;2023-05-10T07:19:50;14.52;45.49
72928;SHT30;61071;51.618;19.388;2023-05-10T07:22:16;14.63;46.06
72928;SHT30;61071;51.618;19.388;2023-05-10T07:24:42;14.75;46.74
72928;SHT30;61071;51.618;19.388;2023-05-10T07:27:08;14.91;44.74
72928;SHT30;61071;51.618;19.388;2023-05-10T07:29:35;14.94;44.34
72928;SHT30;61071;51.618;19.388;2023-05-10T07:32:01;14.72;45.61
72928;SHT30;61071;51.618;19.388;2023-05-10T07:34:27;14.91;46.91
72928;SHT30;61071;51.618;19.388;2023-05-10T07:36:54;15.10;46.16
72928;SHT30;61071;51.618;19.388;2023-05-10T07:39:20;15.20;45.24
72928;SHT30;61071;51.618;19.388;2023-05-10T10:04:07;17.70;37.94
72928;SHT30;61071;51.618;19.388;2023-05-10T10:06:39;17.91;35.60
72928;SHT30;61071;51.618;19.388;2023-05-10T10:09:07;17.88;35.87
72928;SHT30;61071;51.618;19.388;2023-05-10T10:11:37;17.84;35.83
72928;SHT30;61071;51.618;19.388;2023-05-10T10:14:02;17.86;36.62
72928;SHT30;61071;51.618;19.388;2023-05-10T10:16:29;17.91;37.21
72928;SHT30;61071;51.618;19.388;2023-05-10T10:18:55;18.14;39.08
72928;SHT30;61071;51.618;19.388;2023-05-10T10:21:22;18.09;36.86
72928;SHT30;61071;51.618;19.388;2023-05-10T10:23:48;17.98;37.82
72928;SHT30;61071;51.618;19.388;2023-05-10T10:26:15;18.02;35.11
72928;SHT30;61071;51.618;19.388;2023-05-10T10:29:31;18.12;38.34
72928;SHT30;61071;51.618;19.388;2023-05-10T10:32:24;17.98;36.53
72928;SHT30;61071;51.618;19.388;2023-05-10T10:34:51;18.01;38.23
72928;SHT30;61071;51.618;19.388;2023-05-10T10:37:17;18.09;35.72
72928;SHT30;61071;51.618;19.388;2023-05-10T10:39:42;18.09;36.93
72928;SHT30;61071;51.618;19.388;2023-05-10T10:42:08;18.08;35.54
72928;SHT30;61071;51.618;19.388;2023-05-10T10:44:37;18.32;35.76
72928;SHT30;61071;51.618;19.388;2023-05-10T10:50:02;18.32;35.56
72928;SHT30;61071;51.618;19.388;2023-05-10T10:52:31;18.33;36.86
72928;SHT30;61071;51.618;19.388;2023-05-10T10:55:17;18.53;34.93
72928;SHT30;61071;51.618;19.388;2023-05-10T10:57:56;18.41;35.76
72928;SHT30;61071;51.618;19.388;2023-05-10T11:00:30;18.50;37.51
72928;SHT30;61071;51.618;19.388;2023-05-10T11:03:04;18.10;35.59
72928;SHT30;61071;51.618;19.388;2023-05-10T11:05:47;18.23;34.57
72928;SHT30;61071;51.618;19.388;2023-05-10T11:08:34;18.22;37.18
72928;SHT30;61071;51.618;19.388;2023-05-10T11:13:46;18.20;36.89
72928;SHT30;61071;51.618;19.388;2023-05-10T11:16:24;18.13;35.49
72928;SHT30;61071;51.618;19.388;2023-05-10T11:19:04;18.22;35.96
72928;SHT30;61071;51.618;19.388;2023-05-10T11:21:31;18.25;35.23
72928;SHT30;61071;51.618;19.388;2023-05-10T11:24:00;18.49;37.71
72928;SHT30;61071;51.618;19.388;2023-05-10T11:26:34;18.64;35.17
72928;SHT30;61071;51.618;19.388;2023-05-10T11:29:00;18.53;35.45
72928;SHT30;61071;51.618;19.388;2023-05-10T11:31:28;18.70;34.86
72928;SHT30;61071;51.618;19.388;2023-05-10T11:33:56;18.60;35.89
72928;SHT30;61071;51.618;19.388;2023-05-10T11:36:27;18.33;35.70
72928;SHT30;61071;51.618;19.388;2023-05-10T11:38:54;18.36;34.21
72928;SHT30;61071;51.618;19.388;2023-05-10T11:41:21;18.50;34.49
72928;SHT30;61071;51.618;19.388;2023-05-10T11:43:49;18.40;36.86
72928;SHT30;61071;51.618;19.388;2023-05-10T11:46:19;18.75;36.54
72928;SHT30;61071;51.618;19.388;2023-05-10T11:48:47;18.43;35.89
72928;SHT30;61071;51.618;19.388;2023-05-10T11:51:14;18.60;38.51
72928;SHT30;61071;51.618;19.388;2023-05-10T11:53:39;18.87;35.28
72928;SHT30;61071;51.618;19.388;2023-05-10T11:56:07;18.94;36.87
72928;SHT30;61071;51.618;19.388;2023-05-10T11:58:34;18.75;34.64
72928;SHT30;61071;51.618;19.388;2023-05-10T12:01:01;19.14;37.76
72928;SHT30;61071;51.618;19.388;2023-05-10T12:03:28;19.06;36.51
72928;SHT30;61071;51.618;19.388;2023-05-10T12:05:55;18.97;35.69
72928;SHT30;61071;51.618;19.388;2023-05-10T12:08:27;18.89;32.97
72928;SHT30;61071;51.618;19.388;2023-05-10T12:11:04;18.88;34.75
72928;SHT30;61071;51.618;19.388;2023-05-10T12:13:30;18.79;35.91
72928;SHT30;61071;51.618;19.388;2023-05-10T12:15:59;18.63;35.10
72928;SHT30;61071;51.618;19.388;2023-05-10T12:18:25;18.72;35.72
72928;SHT30;61071;51.618;19.388;2023-05-10T12:20:52;18.64;37.23
72928;SHT30;61071;51.618;19.388;2023-05-10T12:23:20;18.54;35.52
72928;SHT30;61071;51.618;19.388;2023-05-10T12:25:46;18.37;35.16
72928;SHT30;61071;51.618;19.388;2023-05-10T12:28:11;18.26;34.04
72928;SHT30;61071;51.618;19.388;2023-05-10T12:30:37;18.39;35.88
72928;SHT30;61071;51.618;19.388;2023-05-10T12:35:48;18.53;36.12
72928;SHT30;61071;51.618;19.388;2023-05-10T12:38:34;18.57;36.00
72928;SHT30;61071;51.618;19.388;2023-05-10T12:41:03;18.41;36.75
72928;SHT30;61071;51.618;19.388;2023-05-10T12:43:30;18.34;36.73
72928;SHT30;61071;51.618;19.388;2023-05-10T12:45:56;18.40;33.87
72928;SHT30;61071;51.618;19.388;2023-05-10T12:48:22;18.49;34.36
72928;SHT30;61071;51.618;19.388;2023-05-10T12:50:47;18.58;34.70
72928;SHT30;61071;51.618;19.388;2023-05-10T12:53:15;18.61;36.53
72928;SHT30;61071;51.618;19.388;2023-05-10T12:55:41;18.51;34.16
72928;SHT30;61071;51.618;19.388;2023-05-10T12:58:07;18.46;35.62
72928;SHT30;61071;51.618;19.388;2023-05-10T13:00:33;18.23;35.84
72928;SHT30;61071;51.618;19.388;2023-05-10T13:02:58;18.08;35.56
72928;SHT30;61071;51.618;19.388;2023-05-10T13:05:23;18.25;35.95
72928;SHT30;61071;51.618;19.388;2023-05-10T13:07:49;18.37;36.60
72928;SHT30;61071;51.618;19.388;2023-05-10T13:10:14;18.61;35.28
72928;SHT30;61071;51.618;19.388;2023-05-10T13:12:40;18.78;35.36
72928;SHT30;61071;51.618;19.388;2023-05-10T13:15:06;18.84;35.33
72928;SHT30;61071;51.618;19.388;2023-05-10T13:17:32;18.47;34.31
72928;SHT30;61071;51.618;19.388;2023-05-10T13:19:57;18.33;35.54
72928;SHT30;61071;51.618;19.388;2023-05-10T13:22:22;18.09;37.75
72928;SHT30;61071;51.618;19.388;2023-05-10T13:24:48;18.19;36.79
72928;SHT30;61071;51.618;19.388;2023-05-10T13:27:13;18.53;36.48
72928;SHT30;61071;51.618;19.388;2023-05-10T13:29:38;18.70;36.56
72928;SHT30;61071;51.618;19.388;2023-05-10T13:32:04;18.83;36.71
72928;SHT30;61071;51.618;19.388;2023-05-10T13:34:30;18.89;35.66
72928;SHT30;61071;51.618;19.388;2023-05-10T13:36:55;18.81;36.20
72928;SHT30;61071;51.618;19.388;2023-05-10T13:39:21;18.84;35.78
72928;SHT30;61071;51.618;19.388;2023-05-10T13:41:47;18.98;35.88
72928;SHT30;61071;51.618;19.388;2023-05-10T13:44:14;19.11;34.35
72928;SHT30;61071;51.618;19.388;2023-05-10T13:46:40;19.19;34.22
72928;SHT30;61071;51.618;19.388;2023-05-10T13:49:08;19.09;35.62
72928;SHT30;61071;51.618;19.388;2023-05-10T13:51:34;19.16;35.06
72928;SHT30;61071;51.618;19.388;2023-05-10T13:53:59;19.12;35.13
72928;SHT30;61071;51.618;19.388;2023-05-10T13:56:37;18.92;35.26
72928;SHT30;61071;51.618;19.388;2023-05-10T13:59:02;18.92;33.99
72928;SHT30;61071;51.618;19.388;2023-05-10T14:01:28;18.94;33.07
72928;SHT30;61071;51.618;19.388;2023-05-10T14:03:53;19.06;34.84
72928;SHT30;61071;51.618;19.388;2023-05-10T14:06:19;18.99;33.97
72928;SHT30;61071;51.618;19.388;2023-05-10T14:08:44;18.67;36.06
72928;SHT30;61071;51.618;19.388;2023-05-10T14:11:11;18.63;33.68
72928;SHT30;61071;51.618;19.388;2023-05-10T14:13:36;18.77;33.42
72928;SHT30;61071;51.618;19.388;2023-05-10T14:16:02;18.60;34.09
72928;SHT30;61071;51.618;19.388;2023-05-10T14:18:28;18.61;35.44
72928;SHT30;61071;51.618;19.388;2023-05-10T14:20:53;18.65;35.52
72928;SHT30;61071;51.618;19.388;2023-05-10T14:23:19;18.79;35.24
72928;SHT30;61071;51.618;19.388;2023-05-10T14:25:50;19.11;32.27
72928;SHT30;61071;51.618;19.388;2023-05-10T14:28:16;19.20;33.76
72928;SHT30;61071;51.618;19.388;2023-05-10T14:30:43;18.94;32.89
72928;SHT30;61071;51.618;19.388;2023-05-10T14:33:08;18.72;33.61
72928;SHT30;61071;51.618;19.388;2023-05-10T14:35:34;18.75;36.70
72928;SHT30;61071;51.618;19.388;2023-05-10T14:37:59;18.64;33.79
72928;SHT30;61071;51.618;19.388;2023-05-10T14:40:25;18.78;33.38
72928;SHT30;61071;51.618;19.388;2023-05-10T14:42:51;18.81;32.95
72928;SHT30;61071;51.618;19.388;2023-05-10T14:45:18;18.74;34.24
72928;SHT30;61071;51.618;19.388;2023-05-10T14:47:43;18.77;35.05
72928;SHT30;61071;51.618;19.388;2023-05-10T14:50:09;18.61;33.94
72928;SHT30;61071;51.618;19.388;2023-05-10T14:56:00;18.65;32.20
72928;SHT30;61071;51.618;19.388;2023-05-10T14:58:26;18.79;32.00
72928;SHT30;61071;51.618;19.388;2023-05-10T15:00:52;18.51;33.56
72928;SHT30;61071;51.618;19.388;2023-05-10T15:03:18;18.32;33.43
72928;SHT30;61071;51.618;19.388;2023-05-10T15:05:43;18.34;33.79
72928;SHT30;61071;51.618;19.388;2023-05-10T15:08:09;18.39;33.34
72928;SHT30;61071;51.618;19.388;2023-05-10T15:10:35;18.41;33.37
72928;SHT30;61071;51.618;19.388;2023-05-10T15:13:03;18.29;33.77
72928;SHT30;61071;51.618;19.388;2023-05-10T15:15:29;18.12;34.77
72928;SHT30;61071;51.618;19.388;2023-05-10T15:17:54;18.16;34.63
72928;SHT30;61071;51.618;19.388;2023-05-10T15:20:21;18.19;35.25
72928;SHT30;61071;51.618;19.388;2023-05-10T15:22:46;18.28;33.85
72928;SHT30;61071;51.618;19.388;2023-05-10T15:25:13;18.40;34.14
72928;SHT30;61071;51.618;19.388;2023-05-10T15:27:38;18.39;34.50
72928;SHT30;61071;51.618;19.388;2023-05-10T15:30:04;18.26;35.33
72928;SHT30;61071;51.618;19.388;2023-05-10T15:32:30;18.10;34.35
72928;SHT30;61071;51.618;19.388;2023-05-10T15:34:55;18.12;33.67
72928;SHT30;61071;51.618;19.388;2023-05-10T15:37:21;18.17;33.70
72928;SHT30;61071;51.618;19.388;2023-05-10T15:39:48;18.09;34.35
72928;SHT30;61071;51.618;19.388;2023-05-10T15:42:13;18.06;34.14
72928;SHT30;61071;51.618;19.388;2023-05-10T15:44:39;18.28;33.77
72928;SHT30;61071;51.618;19.388;2023-05-10T15:47:04;18.10;34.73
72928;SHT30;61071;51.618;19.388;2023-05-10T15:49:31;18.12;35.48
72928;SHT30;61071;51.618;19.388;2023-05-10T15:51:56;18.03;33.88
72928;SHT30;61071;51.618;19.388;2023-05-10T15:54:21;18.03;33.59
72928;SHT30;61071;51.618;19.388;2023-05-10T15:56:47;18.02;33.96
72928;SHT30;61071;51.618;19.388;2023-05-10T15:59:13;17.96;34.22
72928;SHT30;61071;51.618;19.388;2023-05-10T16:01:39;17.85;34.93
72928;SHT30;61071;51.618;19.388;2023-05-10T16:04:04;17.70;35.46
72928;SHT30;61071;51.618;19.388;2023-05-10T16:06:30;17.55;34.77
72928;SHT30;61071;51.618;19.388;2023-05-10T16:08:55;17.64;34.15
72928;SHT30;61071;51.618;19.388;2023-05-10T16:11:21;17.78;34.69
72928;SHT30;61071;51.618;19.388;2023-05-10T16:13:46;17.91;33.47
72928;SHT30;61071;51.618;19.388;2023-05-10T16:16:12;17.93;34.27
72928;SHT30;61071;51.618;19.388;2023-05-10T16:18:37;17.88;35.51
72928;SHT30;61071;51.618;19.388;2023-05-10T16:21:03;17.88;35.67
72928;SHT30;61071;51.618;19.388;2023-05-10T16:23:28;17.68;34.93
72928;SHT30;61071;51.618;19.388;2023-05-10T16:25:54;17.75;33.78
72928;SHT30;61071;51.618;19.388;2023-05-10T16:28:20;17.70;34.66
72928;SHT30;61071;51.618;19.388;2023-05-10T16:30:46;17.50;33.87
72928;SHT30;61071;51.618;19.388;2023-05-10T16:33:13;17.41;34.78
72928;SHT30;61071;51.618;19.388;2023-05-10T16:35:39;17.33;35.60
72928;SHT30;61071;51.618;19.388;2023-05-10T16:38:04;17.31;35.27
72928;SHT30;61071;51.618;19.388;2023-05-10T16:40:31;17.30;34.72
72928;SHT30;61071;51.618;19.388;2023-05-10T16:42:56;17.31;33.64
72928;SHT30;61071;51.618;19.388;2023-05-10T16:45:22;17.17;35.18
72928;SHT30;61071;51.618;19.388;2023-05-10T16:47:48;17.13;35.10
72928;SHT30;61071;51.618;19.388;2023-05-10T16:50:13;17.07;36.24
72928;SHT30;61071;51.618;19.388;2023-05-10T16:52:39;17.03;36.18
72928;SHT30;61071;51.618;19.388;2023-05-10T16:55:05;16.99;37.12
72928;SHT30;61071;51.618;19.388;2023-05-10T16:57:31;17.09;35.92
72928;SHT30;61071;51.618;19.388;2023-05-10T16:59:57;17.02;35.95
72928;SHT30;61071;51.618;19.388;2023-05-10T17:02:22;17.02;36.07
72928;SHT30;61071;51.618;19.388;2023-05-10T17:04:48;16.95;36.03
72928;SHT30;61071;51.618;19.388;2023-05-10T17:07:15;16.90;36.21
72928;SHT30;61071;51.618;19.388;2023-05-10T17:09:41;16.92;36.74
72928;SHT30;61071;51.618;19.388;2023-05-10T17:12:07;16.83;36.09
72928;SHT30;61071;51.618;19.388;2023-05-10T17:14:33;16.73;37.66
72928;SHT30;61071;51.618;19.388;2023-05-10T17:16:58;16.83;37.33
72928;SHT30;61071;51.618;19.388;2023-05-10T17:19:24;16.80;36.59
72928;SHT30;61071;51.618;19.388;2023-05-10T17:21:49;16.65;37.66
72928;SHT30;61071;51.618;19.388;2023-05-10T17:24:15;16.76;37.47
72928;SHT30;61071;51.618;19.388;2023-05-10T17:26:40;16.69;38.37
72928;SHT30;61071;51.618;19.388;2023-05-10T17:29:06;16.69;37.18
72928;SHT30;61071;51.618;19.388;2023-05-10T17:31:32;16.65;38.11
72928;SHT30;61071;51.618;19.388;2023-05-10T17:33:58;16.47;38.30
72928;SHT30;61071;51.618;19.388;2023-05-10T17:36:24;16.38;37.84
72928;SHT30;61071;51.618;19.388;2023-05-10T17:38:49;16.38;37.55
72928;SHT30;61071;51.618;19.388;2023-05-10T17:41:15;16.20;37.82
72928;SHT30;61071;51.618;19.388;2023-05-10T17:43:41;15.97;39.14
72928;SHT30;61071;51.618;19.388;2023-05-10T17:46:06;15.89;39.31
72928;SHT30;61071;51.618;19.388;2023-05-10T17:48:32;15.81;40.27
72928;SHT30;61071;51.618;19.388;2023-05-10T17:50:57;15.63;40.95
72928;SHT30;61071;51.618;19.388;2023-05-10T17:53:23;15.69;41.75
72928;SHT30;61071;51.618;19.388;2023-05-10T17:55:50;15.56;41.27
72928;SHT30;61071;51.618;19.388;2023-05-10T17:58:16;15.44;39.93
72928;SHT30;61071;51.618;19.388;2023-05-10T18:00:41;15.31;39.78
72928;SHT30;61071;51.618;19.388;2023-05-10T18:03:07;15.21;40.61
72928;SHT30;61071;51.618;19.388;2023-05-10T18:05:37;15.10;41.31
72928;SHT30;61071;51.618;19.388;2023-05-10T18:08:04;15.04;40.00
72928;SHT30;61071;51.618;19.388;2023-05-10T18:10:30;14.91;39.93
72928;SHT30;61071;51.618;19.388;2023-05-10T18:12:55;14.86;40.30
72928;SHT30;61071;51.618;19.388;2023-05-10T18:15:22;14.80;40.78
72928;SHT30;61071;51.618;19.388;2023-05-10T18:17:48;14.68;40.47